Time;durP1;ratioP1;P1;durP2;ratioP2;P2;SDS_P1;SDS_P2;PMS_P1;PMS_P2;Temp;Humidity;BMP_temperature;BMP_pressure;BME280_temperature;BME280_humidity;BME280_pressure;Samples;Min_cycle;Max_cycle;Signal;HPM_P1;HPM_P2
2022/11/14 00:01:22;;;;;;;67.38;31.85;;;6.50;99.90;;;;;;5050692;28;20056;-41
2022/11/14 00:03:49;;;;;;;62.05;30.38;;;6.50;99.90;;;;;;5047760;28;20080;-38
2022/11/14 00:06:16;;;;;;;65.55;31.73;;;6.50;99.90;;;;;;5046529;28;20049;-40
2022/11/14 00:08:44;;;;;;;69.57;31.45;;;6.60;99.90;;;;;;5050192;28;20060;-41
2022/11/14 00:11:11;;;;;;;63.58;31.88;;;6.60;99.90;;;;;;5049763;28;20107;-41
2022/11/14 00:13:38;;;;;;;68.20;34.10;;;6.60;99.90;;;;;;5043070;28;20087;-40
2022/11/14 00:16:05;;;;;;;67.00;34.25;;;6.60;99.90;;;;;;5041625;28;20129;-41
2022/11/14 00:18:31;;;;;;;63.35;32.75;;;6.60;99.90;;;;;;5015504;28;20527;-39
2022/11/14 00:20:58;;;;;;;67.90;33.30;;;6.60;99.90;;;;;;5016865;28;20057;-38
2022/11/14 00:23:25;;;;;;;65.93;33.45;;;6.70;99.90;;;;;;5033218;28;20567;-41
2022/11/14 00:25:53;;;;;;;64.38;33.92;;;6.70;99.90;;;;;;5032392;28;20162;-42
2022/11/14 00:28:20;;;;;;;68.53;35.42;;;6.70;99.90;;;;;;5014685;28;20085;-40
2022/11/14 00:30:47;;;;;;;66.25;34.67;;;6.70;99.90;;;;;;5013279;28;20112;-40
2022/11/14 00:33:14;;;;;;;63.03;34.00;;;6.70;99.90;;;;;;5032937;28;20057;-41
2022/11/14 00:35:41;;;;;;;64.53;33.15;;;6.70;99.90;;;;;;5018060;28;20069;-41
2022/11/14 00:38:07;;;;;;;62.83;36.38;;;6.70;99.90;;;;;;5033436;28;20127;-40
2022/11/14 00:40:34;;;;;;;63.38;34.97;;;6.70;99.90;;;;;;5032219;28;20128;-41
2022/11/14 00:43:02;;;;;;;65.00;35.45;;;6.70;99.90;;;;;;5036584;28;20516;-40
2022/11/14 00:45:29;;;;;;;60.05;35.58;;;6.80;99.90;;;;;;5049235;28;20217;-41
2022/11/14 00:47:56;;;;;;;62.97;34.88;;;6.80;99.90;;;;;;5029364;28;20053;-41
2022/11/14 00:50:23;;;;;;;57.10;33.05;;;6.80;99.90;;;;;;5031864;28;20089;-41
2022/11/14 00:52:49;;;;;;;65.60;35.60;;;6.80;99.90;;;;;;5039792;28;20115;-41
2022/11/14 00:55:16;;;;;;;63.78;35.92;;;6.80;99.90;;;;;;5026983;28;20543;-38
2022/11/14 00:57:43;;;;;;;59.45;33.85;;;6.80;99.90;;;;;;5018048;28;20137;-41
2022/11/14 01:00:13;;;;;;;71.88;37.47;;;6.80;99.90;;;;;;5025645;28;20057;-41
2022/11/14 01:02:40;;;;;;;64.57;36.55;;;6.80;99.90;;;;;;5047894;28;20140;-41
2022/11/14 01:05:07;;;;;;;64.75;37.42;;;6.80;99.90;;;;;;5027720;28;20140;-42
2022/11/14 01:07:34;;;;;;;65.25;36.72;;;6.80;99.90;;;;;;5044052;28;20065;-40
2022/11/14 01:10:00;;;;;;;64.57;37.20;;;6.80;99.90;;;;;;5024070;28;20179;-38
2022/11/14 01:12:27;;;;;;;65.03;36.90;;;6.80;99.90;;;;;;5040601;28;20055;-39
2022/11/14 01:14:54;;;;;;;63.55;36.88;;;6.80;99.90;;;;;;5045999;28;20127;-40
2022/11/14 01:17:22;;;;;;;67.85;37.25;;;6.80;99.90;;;;;;5044712;28;20087;-39
2022/11/14 01:19:49;;;;;;;65.95;36.58;;;6.80;99.90;;;;;;5029130;28;20132;-40
2022/11/14 01:22:16;;;;;;;62.85;36.97;;;6.80;99.90;;;;;;5046415;28;20099;-40
2022/11/14 01:24:42;;;;;;;68.25;37.70;;;6.80;99.90;;;;;;5022879;28;20524;-40
2022/11/14 01:27:09;;;;;;;64.07;36.70;;;6.70;99.90;;;;;;5048356;28;20535;-40
2022/11/14 01:29:36;;;;;;;70.93;39.40;;;6.80;99.90;;;;;;5029710;28;20092;-39
2022/11/14 01:32:03;;;;;;;71.45;39.80;;;6.80;99.90;;;;;;5048721;28;20052;-40
2022/11/14 01:34:31;;;;;;;68.90;37.95;;;6.80;99.90;;;;;;5052180;28;20467;-40
2022/11/14 01:36:58;;;;;;;69.20;39.28;;;6.70;99.90;;;;;;5040439;28;20225;-40
2022/11/14 01:39:26;;;;;;;68.47;39.05;;;6.70;99.90;;;;;;5023777;28;20144;-38
2022/11/14 01:41:52;;;;;;;74.32;40.28;;;6.70;99.90;;;;;;5047581;28;20124;-42
2022/11/14 01:44:38;;;;;;;75.18;42.28;;;6.70;99.90;;;;;;5029599;28;20136;-38
2022/11/14 01:47:05;;;;;;;70.28;39.47;;;6.70;99.90;;;;;;5022593;28;20135;-41
2022/11/14 01:49:35;;;;;;;77.55;41.58;;;6.70;99.90;;;;;;5043137;28;20140;-40
2022/11/14 01:52:03;;;;;;;70.72;40.33;;;6.70;99.90;;;;;;5046637;28;20140;-38
2022/11/14 01:54:32;;;;;;;70.22;39.70;;;6.60;99.90;;;;;;5040079;28;20143;-37
2022/11/14 01:57:00;;;;;;;75.45;41.08;;;6.60;99.90;;;;;;5045843;28;20049;-39
2022/11/14 01:59:29;;;;;;;74.53;40.88;;;6.60;99.90;;;;;;5042401;28;20207;-40
2022/11/14 02:01:56;;;;;;;74.80;43.95;;;6.60;99.90;;;;;;5031569;28;20130;-38
2022/11/14 02:04:25;;;;;;;81.25;43.15;;;6.60;99.90;;;;;;5025895;28;20469;-41
2022/11/14 02:06:55;;;;;;;83.53;44.67;;;6.50;99.90;;;;;;5042796;28;20045;-39
2022/11/14 02:09:22;;;;;;;78.28;42.33;;;6.50;99.90;;;;;;5022965;28;20061;-41
2022/11/14 02:11:48;;;;;;;82.70;45.05;;;6.50;99.90;;;;;;5046740;28;20487;-41
2022/11/14 02:14:15;;;;;;;85.95;44.40;;;6.50;99.90;;;;;;5036740;28;20494;-39
2022/11/14 02:16:42;;;;;;;79.28;43.47;;;6.50;99.90;;;;;;5039786;28;20565;-41
2022/11/14 02:19:09;;;;;;;83.45;44.95;;;6.50;99.90;;;;;;5037017;28;20124;-41
2022/11/14 02:21:37;;;;;;;88.78;48.35;;;6.50;99.90;;;;;;5024046;28;20132;-40
2022/11/14 02:24:07;;;;;;;80.78;45.53;;;6.50;99.90;;;;;;5044354;28;20118;-41
2022/11/14 02:26:34;;;;;;;84.22;45.10;;;6.50;99.90;;;;;;5045382;28;20443;-40
2022/11/14 02:29:01;;;;;;;84.15;46.60;;;6.50;99.90;;;;;;5042618;28;20072;-41
2022/11/14 02:31:28;;;;;;;90.80;46.85;;;6.50;99.90;;;;;;5043804;28;20172;-42
2022/11/14 02:33:54;;;;;;;88.85;46.75;;;6.50;99.90;;;;;;5025061;28;20131;-38
2022/11/14 02:36:21;;;;;;;93.35;46.88;;;6.50;99.90;;;;;;5041424;28;20132;-40
2022/11/14 02:38:49;;;;;;;83.63;46.80;;;6.50;99.90;;;;;;5025745;28;20136;-40
2022/11/14 02:41:16;;;;;;;89.78;47.65;;;6.50;99.90;;;;;;5026412;28;20119;-39
2022/11/14 02:43:43;;;;;;;90.95;45.90;;;6.50;99.90;;;;;;5039736;28;20656;-39
2022/11/14 02:46:10;;;;;;;88.60;47.88;;;6.40;99.90;;;;;;5024337;28;20132;-40
2022/11/14 02:48:36;;;;;;;88.20;47.25;;;6.50;99.90;;;;;;5026632;28;20488;-40
2022/11/14 02:51:03;;;;;;;89.40;48.13;;;6.50;99.90;;;;;;5045466;28;20508;-41
2022/11/14 02:53:30;;;;;;;98.40;50.50;;;6.50;99.90;;;;;;5040754;28;20428;-39
2022/11/14 02:55:58;;;;;;;95.93;51.63;;;6.40;99.90;;;;;;5018323;28;20525;-39
2022/11/14 02:58:25;;;;;;;102.00;52.58;;;6.50;99.90;;;;;;5022080;28;20122;-41
2022/11/14 03:00:52;;;;;;;94.43;48.45;;;6.40;99.90;;;;;;5025717;28;20128;-41
2022/11/14 03:03:18;;;;;;;91.95;51.15;;;6.50;99.90;;;;;;5040543;28;20172;-38
2022/11/14 03:05:45;;;;;;;97.50;49.47;;;6.50;99.90;;;;;;5040726;28;20494;-41
2022/11/14 03:08:12;;;;;;;90.85;49.55;;;6.50;99.90;;;;;;5025941;28;20457;-38
2022/11/14 03:10:39;;;;;;;94.68;49.50;;;6.40;99.90;;;;;;5039562;28;20049;-39
2022/11/14 03:13:07;;;;;;;91.10;47.33;;;6.40;99.90;;;;;;5022091;28;20488;-40
2022/11/14 03:15:36;;;;;;;99.68;52.03;;;6.40;99.90;;;;;;5025020;28;20084;-40
2022/11/14 03:18:03;;;;;;;100.15;51.65;;;6.40;99.90;;;;;;5024666;28;20088;-40
2022/11/14 03:20:30;;;;;;;95.22;49.90;;;6.50;99.90;;;;;;5044075;28;21818;-41
2022/11/14 03:22:57;;;;;;;95.53;50.47;;;6.50;99.90;;;;;;5043836;28;20548;-38
2022/11/14 03:25:23;;;;;;;98.57;50.13;;;6.50;99.90;;;;;;5024049;28;20481;-42
2022/11/14 03:27:50;;;;;;;104.70;50.95;;;6.40;99.90;;;;;;5024101;28;20044;-42
2022/11/14 03:30:19;;;;;;;94.07;48.63;;;6.40;99.90;;;;;;5032447;28;20111;-40
2022/11/14 03:32:45;;;;;;;91.18;49.33;;;6.40;99.90;;;;;;5025398;28;20073;-40
2022/11/14 03:35:12;;;;;;;93.82;49.58;;;6.40;99.90;;;;;;5040735;28;20445;-39
2022/11/14 03:37:39;;;;;;;92.90;48.42;;;6.40;99.90;;;;;;5040795;28;20152;-37
2022/11/14 03:40:07;;;;;;;91.22;47.22;;;6.40;99.90;;;;;;5038781;28;20073;-40
2022/11/14 03:42:34;;;;;;;96.47;48.17;;;6.40;99.90;;;;;;5041009;28;20531;-38
2022/11/14 03:45:01;;;;;;;90.75;46.33;;;6.40;99.90;;;;;;5040055;28;20130;-40
2022/11/14 03:47:29;;;;;;;84.88;45.58;;;6.40;99.90;;;;;;5040236;28;20124;-40
2022/11/14 03:49:55;;;;;;;100.25;50.70;;;6.30;99.90;;;;;;5034223;28;20385;-37
2022/11/14 03:52:24;;;;;;;89.07;46.20;;;6.30;99.90;;;;;;5029766;28;20108;-39
2022/11/14 03:54:51;;;;;;;90.38;46.70;;;6.30;99.90;;;;;;5032776;28;20467;-41
2022/11/14 03:57:18;;;;;;;90.55;47.33;;;6.30;99.90;;;;;;5045029;28;20139;-42
2022/11/14 03:59:45;;;;;;;92.88;49.28;;;6.30;99.90;;;;;;5042030;28;20139;-41
2022/11/14 04:02:11;;;;;;;89.97;47.40;;;6.30;99.90;;;;;;5038610;28;20138;-40
2022/11/14 04:04:40;;;;;;;92.93;48.47;;;6.30;99.90;;;;;;5039647;28;20076;-41
2022/11/14 04:07:06;;;;;;;90.35;47.53;;;6.30;99.90;;;;;;5040850;28;20072;-40
2022/11/14 04:09:33;;;;;;;89.55;46.65;;;6.40;99.90;;;;;;5024960;28;20085;-41
2022/11/14 04:12:00;;;;;;;98.03;48.70;;;6.30;99.90;;;;;;5044967;28;20080;-37
2022/11/14 04:14:27;;;;;;;88.38;48.22;;;6.30;99.90;;;;;;5049923;28;20480;-40
2022/11/14 04:16:53;;;;;;;87.93;48.05;;;6.30;99.90;;;;;;5023401;28;20713;-39
2022/11/14 04:19:20;;;;;;;86.97;46.97;;;6.30;99.90;;;;;;5038497;28;20469;-40
2022/11/14 04:21:48;;;;;;;88.40;46.97;;;6.30;99.90;;;;;;5027366;28;20392;-38
2022/11/14 04:24:15;;;;;;;84.57;46.38;;;6.20;99.90;;;;;;5024839;28;20088;-40
2022/11/14 04:26:42;;;;;;;95.63;48.42;;;6.20;99.90;;;;;;5020663;28;20124;-40
2022/11/14 04:29:08;;;;;;;91.32;46.78;;;6.20;99.90;;;;;;5045649;28;20052;-38
2022/11/14 04:31:35;;;;;;;94.15;50.92;;;6.30;99.90;;;;;;5046012;28;20077;-38
2022/11/14 04:34:02;;;;;;;94.75;48.97;;;6.30;99.90;;;;;;5029160;28;20492;-38
2022/11/14 04:36:29;;;;;;;85.75;46.65;;;6.20;99.90;;;;;;5044361;28;20115;-41
2022/11/14 04:38:57;;;;;;;86.22;46.55;;;6.20;99.90;;;;;;5040852;28;20138;-41
2022/11/14 04:41:24;;;;;;;86.63;47.00;;;6.30;99.90;;;;;;5024916;28;20578;-40
2022/11/14 04:43:50;;;;;;;86.18;45.63;;;6.20;99.90;;;;;;5026343;28;20080;-41
2022/11/14 04:46:17;;;;;;;87.82;47.08;;;6.20;99.90;;;;;;5042908;28;20053;-41
2022/11/14 04:48:44;;;;;;;89.05;47.55;;;6.20;99.90;;;;;;5028447;28;20102;-40
2022/11/14 04:51:11;;;;;;;88.43;46.90;;;6.20;99.90;;;;;;5042900;28;20611;-38
2022/11/14 04:53:38;;;;;;;85.20;46.13;;;6.30;99.90;;;;;;5043093;28;20140;-41
2022/11/14 04:56:06;;;;;;;89.38;47.38;;;6.30;99.90;;;;;;5044386;28;20106;-39
2022/11/14 04:58:33;;;;;;;91.85;47.83;;;6.30;99.90;;;;;;5029129;28;20076;-42
2022/11/14 05:01:00;;;;;;;88.32;46.67;;;6.20;99.90;;;;;;5041455;28;20057;-40
2022/11/14 05:03:27;;;;;;;86.75;46.03;;;6.20;99.90;;;;;;5050060;28;20049;-41
2022/11/14 05:05:54;;;;;;;89.30;47.30;;;6.30;99.90;;;;;;5046539;28;20476;-40
2022/11/14 05:08:21;;;;;;;85.35;47.50;;;6.30;99.90;;;;;;5043248;28;20042;-42
2022/11/14 05:10:48;;;;;;;91.53;50.30;;;6.20;99.90;;;;;;5040061;28;20563;-41
2022/11/14 05:13:16;;;;;;;91.28;47.92;;;6.30;99.90;;;;;;5026898;28;20433;-39
2022/11/14 05:15:42;;;;;;;81.55;45.70;;;6.30;99.90;;;;;;5044052;28;20132;-41
2022/11/14 05:18:09;;;;;;;81.60;44.80;;;6.30;99.90;;;;;;5025764;28;20140;-41
2022/11/14 05:20:36;;;;;;;92.75;47.30;;;6.20;99.90;;;;;;5046956;28;20128;-40
2022/11/14 05:23:03;;;;;;;92.50;47.08;;;6.30;99.90;;;;;;5046630;28;20053;-35
2022/11/14 05:25:29;;;;;;;83.93;46.08;;;6.30;99.90;;;;;;5027471;28;20041;-41
2022/11/14 05:27:56;;;;;;;86.68;47.58;;;6.30;99.90;;;;;;5034867;28;20127;-40
2022/11/14 05:30:24;;;;;;;87.13;46.20;;;6.30;99.90;;;;;;5043788;28;20076;-41
2022/11/14 05:32:51;;;;;;;90.00;46.92;;;6.30;99.90;;;;;;5046991;28;20137;-39
2022/11/14 05:35:18;;;;;;;92.05;47.05;;;6.30;99.90;;;;;;5044611;28;20128;-36
2022/11/14 05:37:45;;;;;;;93.20;48.72;;;6.30;99.90;;;;;;5028374;28;20721;-39
2022/11/14 05:40:12;;;;;;;85.53;45.72;;;6.30;99.90;;;;;;5043060;28;20124;-40
2022/11/14 05:42:39;;;;;;;89.50;48.75;;;6.30;99.90;;;;;;5044944;28;20080;-41
2022/11/14 05:45:06;;;;;;;83.90;44.42;;;6.40;99.90;;;;;;5026214;28;20144;-39
2022/11/14 05:47:35;;;;;;;88.90;48.50;;;6.30;99.90;;;;;;5026506;28;20175;-35
2022/11/14 05:50:01;;;;;;;87.88;46.45;;;6.30;99.90;;;;;;5022609;28;20084;-39
2022/11/14 05:52:28;;;;;;;87.28;46.88;;;6.30;99.90;;;;;;5033442;28;20554;-41
2022/11/14 05:54:55;;;;;;;89.97;47.05;;;6.40;99.90;;;;;;5040878;28;20132;-41
2022/11/14 05:57:22;;;;;;;84.40;46.17;;;6.40;99.90;;;;;;5040507;28;20069;-42
2022/11/14 05:59:51;;;;;;;89.72;47.35;;;6.40;99.90;;;;;;5044519;28;20455;-41
2022/11/14 06:02:18;;;;;;;90.90;48.22;;;6.40;99.90;;;;;;5041490;28;20131;-40
2022/11/14 06:04:46;;;;;;;87.40;45.83;;;6.40;99.90;;;;;;5031990;28;20148;-41
2022/11/14 06:07:13;;;;;;;84.15;46.40;;;6.30;99.90;;;;;;5038023;28;20073;-40
2022/11/14 06:09:40;;;;;;;92.80;47.85;;;6.30;99.90;;;;;;5033988;28;20132;-39
2022/11/14 06:12:07;;;;;;;94.45;48.25;;;6.30;99.90;;;;;;5019300;28;20192;-41
2022/11/14 06:14:34;;;;;;;92.00;47.17;;;6.30;99.90;;;;;;5025325;28;20072;-40
2022/11/14 06:17:00;;;;;;;88.78;47.60;;;6.30;99.90;;;;;;5040170;28;20132;-39
2022/11/14 06:19:27;;;;;;;94.75;47.38;;;6.30;99.90;;;;;;5035873;28;20063;-42
2022/11/14 06:21:55;;;;;;;94.10;47.60;;;6.30;99.90;;;;;;5035562;28;20131;-41
2022/11/14 06:24:22;;;;;;;87.70;46.33;;;6.20;99.90;;;;;;5039233;28;20060;-37
2022/11/14 06:26:49;;;;;;;95.82;48.08;;;6.20;99.90;;;;;;5037415;28;20128;-39
2022/11/14 06:29:15;;;;;;;99.78;48.00;;;6.20;99.90;;;;;;5040415;28;20140;-40
2022/11/14 06:31:42;;;;;;;94.28;47.63;;;6.20;99.90;;;;;;5015597;28;20059;-40
2022/11/14 06:34:11;;;;;;;98.50;47.97;;;6.20;99.90;;;;;;5031214;28;20065;-39
2022/11/14 06:36:37;;;;;;;95.05;46.88;;;6.20;99.90;;;;;;5009502;28;20053;-39
2022/11/14 06:39:06;;;;;;;99.93;48.72;;;6.20;99.90;;;;;;5021329;28;20404;-39
2022/11/14 06:41:32;;;;;;;94.15;47.13;;;6.10;99.90;;;;;;5016573;28;20123;-39
2022/11/14 06:43:59;;;;;;;97.60;46.55;;;6.10;99.90;;;;;;5028187;28;20136;-41
2022/11/14 06:46:26;;;;;;;97.90;48.60;;;6.10;99.90;;;;;;5035928;28;20080;-42
2022/11/14 06:48:53;;;;;;;93.82;48.42;;;6.10;99.90;;;;;;5038773;28;20124;-39
2022/11/14 06:51:19;;;;;;;105.75;49.55;;;6.10;99.90;;;;;;5039688;28;20123;-40
2022/11/14 06:53:46;;;;;;;95.13;48.13;;;6.10;99.90;;;;;;5015755;28;20057;-39
2022/11/14 06:56:15;;;;;;;97.63;48.40;;;6.10;99.90;;;;;;5012489;28;20080;-41
2022/11/14 06:58:43;;;;;;;102.22;48.47;;;6.10;99.90;;;;;;5027071;28;20183;-40
2022/11/14 07:01:11;;;;;;;99.18;49.33;;;6.10;99.90;;;;;;5041817;28;20099;-38
2022/11/14 07:03:38;;;;;;;102.40;48.78;;;6.10;99.90;;;;;;5039260;28;20143;-39
2022/11/14 07:06:05;;;;;;;100.13;48.72;;;6.10;99.90;;;;;;5015583;28;20053;-40
2022/11/14 07:08:32;;;;;;;100.82;48.90;;;6.10;99.90;;;;;;5014400;28;20103;-41
2022/11/14 07:11:02;;;;;;;96.22;47.72;;;6.10;99.90;;;;;;5042068;28;20483;-39
2022/11/14 07:13:31;;;;;;;101.90;51.25;;;6.10;99.90;;;;;;5047170;28;20115;-41
2022/11/14 07:15:57;;;;;;;95.47;48.67;;;6.10;99.90;;;;;;5037143;28;20049;-40
2022/11/14 07:18:29;;;;;;;92.80;46.17;;;6.00;99.90;;;;;;5040321;28;20739;-40
2022/11/14 07:20:59;;;;;;;98.65;47.78;;;6.10;99.90;;;;;;5038797;28;20081;-41
2022/11/14 07:23:26;;;;;;;106.25;50.63;;;6.00;99.90;;;;;;5025081;28;20451;-41
2022/11/14 07:25:53;;;;;;;97.68;48.55;;;6.00;99.90;;;;;;5041312;28;20568;-42
2022/11/14 07:28:20;;;;;;;105.82;52.70;;;6.00;99.90;;;;;;5031549;28;20080;-39
2022/11/14 07:30:48;;;;;;;101.38;48.78;;;6.00;99.90;;;;;;5039601;28;20080;-38
2022/11/14 07:33:15;;;;;;;102.03;48.63;;;6.00;99.90;;;;;;5026227;28;20049;-40
2022/11/14 07:35:41;;;;;;;101.05;47.63;;;5.90;99.90;;;;;;5023257;28;20136;-38
2022/11/14 07:38:08;;;;;;;98.55;47.17;;;5.90;99.90;;;;;;5015449;28;20075;-41
2022/11/14 07:40:35;;;;;;;104.25;48.58;;;5.90;99.90;;;;;;5014103;28;20142;-41
2022/11/14 07:43:02;;;;;;;104.80;49.95;;;5.80;99.90;;;;;;5024369;28;20374;-41
2022/11/14 07:45:29;;;;;;;101.25;49.10;;;5.90;99.90;;;;;;5032290;28;20049;-39
2022/11/14 07:47:57;;;;;;;99.85;48.17;;;5.90;99.90;;;;;;5021818;28;20132;-40
2022/11/14 07:50:24;;;;;;;102.35;47.85;;;5.80;99.90;;;;;;5023408;28;20063;-40
2022/11/14 07:52:51;;;;;;;100.40;48.25;;;5.80;99.90;;;;;;5038081;28;20485;-39
2022/11/14 07:55:18;;;;;;;99.53;49.08;;;5.80;99.90;;;;;;5048227;28;20119;-40
2022/11/14 07:57:45;;;;;;;103.35;50.05;;;5.80;99.90;;;;;;5042293;28;20135;-41
2022/11/14 08:00:13;;;;;;;108.43;50.13;;;5.90;99.90;;;;;;5022250;28;20152;-40
2022/11/14 08:02:40;;;;;;;96.10;48.95;;;5.90;99.90;;;;;;5026574;28;20136;-40
2022/11/14 08:05:08;;;;;;;110.95;49.47;;;5.90;99.90;;;;;;5017408;28;20403;-40
2022/11/14 08:07:35;;;;;;;103.25;49.03;;;5.90;99.90;;;;;;5032539;28;20063;-42
2022/11/14 08:10:02;;;;;;;110.30;51.83;;;6.00;99.90;;;;;;5038923;28;20092;-40
2022/11/14 08:12:28;;;;;;;96.10;46.65;;;5.90;99.90;;;;;;5018218;28;20477;-42
2022/11/14 08:14:55;;;;;;;105.57;49.65;;;5.90;99.90;;;;;;5023031;28;20544;-40
2022/11/14 08:17:27;;;;;;;101.28;49.90;;;5.90;99.90;;;;;;5042523;28;20558;-38
2022/11/14 08:19:54;;;;;;;97.57;47.53;;;6.00;99.90;;;;;;5034389;28;20540;-39
2022/11/14 08:22:22;;;;;;;86.40;44.28;;;6.00;99.90;;;;;;5038760;28;20044;-40
2022/11/14 08:24:49;;;;;;;98.63;48.15;;;6.00;99.90;;;;;;5034919;28;20053;-38
2022/11/14 08:27:16;;;;;;;96.20;46.17;;;6.00;99.90;;;;;;5045758;28;20053;-41
2022/11/14 08:29:42;;;;;;;98.97;50.22;;;6.00;99.90;;;;;;5045451;28;20476;-41
2022/11/14 08:32:10;;;;;;;97.38;47.13;;;6.00;99.90;;;;;;5040928;28;20435;-41
2022/11/14 08:34:36;;;;;;;97.50;48.22;;;6.00;99.90;;;;;;5047810;28;20389;-40
2022/11/14 08:37:03;;;;;;;94.78;48.35;;;6.10;99.90;;;;;;5044077;28;20445;-41
2022/11/14 08:39:31;;;;;;;88.85;45.53;;;6.00;99.90;;;;;;5042530;28;20468;-42
2022/11/14 08:41:58;;;;;;;91.13;45.35;;;6.10;99.90;;;;;;5040857;28;20077;-40
2022/11/14 08:44:25;;;;;;;94.07;46.95;;;6.10;99.90;;;;;;5037158;28;20091;-37
2022/11/14 08:46:51;;;;;;;89.90;46.17;;;6.10;99.90;;;;;;5037937;28;20081;-40
2022/11/14 08:49:18;;;;;;;87.30;44.63;;;6.20;99.90;;;;;;5044994;28;20488;-40
2022/11/14 08:51:45;;;;;;;88.05;44.97;;;6.30;99.90;;;;;;5033359;28;20466;-41
2022/11/14 08:54:12;;;;;;;97.40;47.47;;;6.30;99.90;;;;;;5022228;28;20048;-39
2022/11/14 08:56:40;;;;;;;90.53;45.92;;;6.30;99.90;;;;;;5033316;28;20072;-38
2022/11/14 08:59:07;;;;;;;92.05;46.55;;;6.30;99.90;;;;;;5035110;28;20495;-41
2022/11/14 09:01:34;;;;;;;94.38;46.63;;;6.30;99.90;;;;;;5022016;28;20061;-41
2022/11/14 09:04:00;;;;;;;97.50;47.40;;;6.40;99.90;;;;;;5040297;28;20135;-40
2022/11/14 09:06:27;;;;;;;88.60;44.60;;;6.40;99.90;;;;;;5044764;28;20080;-39
2022/11/14 09:08:54;;;;;;;91.03;45.40;;;6.40;99.90;;;;;;5020067;28;20454;-41
2022/11/14 09:11:21;;;;;;;87.65;43.20;;;6.50;99.90;;;;;;5035769;28;20564;-42
2022/11/14 09:13:49;;;;;;;88.55;44.53;;;6.50;99.90;;;;;;5041239;28;20076;-39
2022/11/14 09:16:15;;;;;;;88.65;46.08;;;6.50;99.90;;;;;;5040553;28;20040;-40
2022/11/14 09:18:42;;;;;;;81.07;43.78;;;6.50;99.90;;;;;;5023895;28;20558;-41
2022/11/14 09:21:10;;;;;;;85.05;44.67;;;6.60;99.90;;;;;;5040668;28;20057;-39
2022/11/14 09:23:37;;;;;;;84.60;44.17;;;6.60;99.90;;;;;;5038758;28;20458;-40
2022/11/14 09:26:04;;;;;;;83.25;42.42;;;6.70;99.90;;;;;;5041283;28;20132;-40
2022/11/14 09:28:31;;;;;;;83.45;43.00;;;6.80;99.90;;;;;;5042369;28;20041;-39
2022/11/14 09:31:01;;;;;;;78.07;40.80;;;6.80;99.90;;;;;;5042357;28;20083;-40
2022/11/14 09:33:28;;;;;;;79.30;42.42;;;6.90;99.90;;;;;;5043089;28;20044;-38
2022/11/14 09:35:57;;;;;;;82.88;42.72;;;7.00;99.90;;;;;;5041566;28;20077;-40
2022/11/14 09:38:23;;;;;;;82.43;42.85;;;7.10;99.90;;;;;;5025427;28;20139;-39
2022/11/14 09:41:02;;;;;;;78.65;42.00;;;7.10;99.90;;;;;;5028940;28;20053;-40
2022/11/14 09:43:38;;;;;;;80.95;44.00;;;7.20;99.90;;;;;;5046164;28;20132;-41
2022/11/14 09:46:12;;;;;;;80.28;40.78;;;7.20;99.90;;;;;;5052722;28;20135;-39
2022/11/14 09:48:39;;;;;;;76.88;41.22;;;7.20;99.90;;;;;;5035254;28;20040;-41
2022/11/14 09:51:07;;;;;;;77.82;40.38;;;7.30;99.90;;;;;;5052830;28;20099;-38
2022/11/14 09:53:36;;;;;;;73.20;39.63;;;7.30;99.90;;;;;;5053557;28;20064;-41
2022/11/14 09:56:03;;;;;;;76.90;40.92;;;7.30;99.90;;;;;;5046967;28;20132;-41
2022/11/14 09:58:30;;;;;;;73.57;39.40;;;7.40;99.90;;;;;;5049918;28;20147;-39
2022/11/14 10:01:00;;;;;;;75.72;40.15;;;7.40;99.90;;;;;;5050186;28;20591;-39
2022/11/14 10:03:33;;;;;;;75.68;39.55;;;7.50;99.90;;;;;;5050646;28;20215;-40
2022/11/14 10:06:12;;;;;;;74.95;39.80;;;7.50;99.90;;;;;;5042387;28;20452;-41
2022/11/14 10:09:12;;;;;;;71.43;38.22;;;7.60;99.90;;;;;;5043738;28;20490;-41
2022/11/14 10:11:39;;;;;;;73.38;39.03;;;7.70;99.90;;;;;;5016151;28;20093;-41
2022/11/14 10:14:35;;;;;;;69.50;38.90;;;7.70;99.90;;;;;;5047150;28;20490;-42
2022/11/14 10:17:09;;;;;;;69.10;38.95;;;7.80;99.90;;;;;;5002082;28;20100;-41
2022/11/14 10:19:41;;;;;;;70.72;38.53;;;7.90;99.90;;;;;;5036181;28;20099;-41
2022/11/14 10:22:13;;;;;;;;;;;7.90;99.90;;;;;;5053957;28;20103;-41
2022/11/14 10:25:01;;;;;;;71.88;38.85;;;8.00;99.90;;;;;;5040809;28;20008;-40
2022/11/14 10:27:29;;;;;;;67.97;36.30;;;8.00;99.90;;;;;;5033176;28;20057;-39
2022/11/14 10:30:04;;;;;;;64.53;35.72;;;8.10;99.90;;;;;;5033136;28;20092;-41
2022/11/14 10:32:53;;;;;;;68.50;37.72;;;8.20;99.90;;;;;;5033744;28;20053;-41
2022/11/14 10:35:23;;;;;;;70.60;38.10;;;8.20;99.90;;;;;;5048428;28;20135;-41
2022/11/14 10:37:55;;;;;;;68.40;39.38;;;8.10;99.90;;;;;;5051897;28;20181;-40
2022/11/14 10:40:23;;;;;;;69.10;38.97;;;8.10;99.90;;;;;;5052027;28;20111;-40
2022/11/14 10:42:51;;;;;;;68.30;39.85;;;8.00;99.90;;;;;;5052624;28;20092;-39
2022/11/14 10:45:21;;;;;;;67.63;38.80;;;8.00;99.90;;;;;;5043515;28;20091;-40
2022/11/14 10:47:49;;;;;;;65.80;37.22;;;8.10;99.90;;;;;;5072069;28;20331;-41
2022/11/14 10:50:19;;;;;;;64.70;36.40;;;8.10;99.90;;;;;;5072835;28;20488;-39
2022/11/14 10:52:47;;;;;;;67.20;38.45;;;8.20;99.90;;;;;;5063996;28;20139;-41
2022/11/14 10:55:15;;;;;;;62.40;37.67;;;8.20;99.90;;;;;;5052834;28;20135;-41
2022/11/14 10:57:42;;;;;;;61.80;35.28;;;8.30;99.90;;;;;;5051845;28;20084;-43
2022/11/14 11:00:13;;;;;;;61.97;35.70;;;8.30;99.90;;;;;;5052372;28;20060;-40
2022/11/14 11:02:48;;;;;;;61.20;36.57;;;8.30;99.90;;;;;;5033185;28;20064;-38
2022/11/14 11:05:15;;;;;;;59.58;35.78;;;8.40;99.90;;;;;;5052483;28;20045;-39
2022/11/14 11:13:14;;;;;;;58.58;35.28;;;8.60;99.90;;;;;;5051855;28;20045;-41
2022/11/14 11:15:42;;;;;;;57.88;34.88;;;8.60;99.90;;;;;;5051916;28;20484;-40
2022/11/14 11:18:24;;;;;;;58.40;34.88;;;8.70;99.90;;;;;;5052085;28;20225;-41
2022/11/14 11:21:01;;;;;;;62.50;35.30;;;8.70;99.90;;;;;;5026765;28;20081;-42
2022/11/14 11:23:28;;;;;;;58.75;35.55;;;8.80;99.90;;;;;;5032354;28;20063;-39
2022/11/14 11:26:04;;;;;;;55.97;34.97;;;8.90;99.90;;;;;;5032630;28;20108;-41
2022/11/14 11:28:32;;;;;;;54.33;33.75;;;8.90;99.90;;;;;;5051806;28;20049;-40
2022/11/14 11:30:59;;;;;;;54.90;32.78;;;8.90;99.90;;;;;;5046631;28;20077;-40
2022/11/14 11:33:27;;;;;;;55.55;32.33;;;9.00;99.90;;;;;;5041247;28;20401;-40
2022/11/14 11:35:56;;;;;;;54.72;33.35;;;9.10;99.90;;;;;;5031930;28;20517;-40
2022/11/14 11:38:25;;;;;;;51.20;31.73;;;9.10;99.90;;;;;;5013804;28;20062;-39
2022/11/14 11:40:54;;;;;;;51.53;31.45;;;9.10;99.90;;;;;;5045738;28;20084;-41
2022/11/14 11:43:27;;;;;;;55.20;33.00;;;9.10;99.90;;;;;;5050559;28;20456;-41
2022/11/14 11:45:54;;;;;;;57.35;33.95;;;9.10;99.90;;;;;;5051982;28;20091;-39
2022/11/14 11:48:21;;;;;;;54.35;33.10;;;9.10;99.90;;;;;;5051796;28;20049;-40
2022/11/14 11:50:48;;;;;;;52.17;31.55;;;9.10;99.90;;;;;;5034078;28;20052;-41
2022/11/14 11:53:17;;;;;;;53.25;32.50;;;9.20;99.90;;;;;;5051599;28;20084;-40
2022/11/14 11:55:46;;;;;;;51.53;32.10;;;9.30;99.90;;;;;;5048386;28;20103;-40
2022/11/14 11:58:19;;;;;;;48.58;30.92;;;9.40;99.90;;;;;;5041731;28;20136;-42
2022/11/14 12:00:47;;;;;;;49.15;31.58;;;9.40;99.90;;;;;;5043799;28;20049;-43
2022/11/14 12:03:14;;;;;;;49.10;30.45;;;9.50;99.90;;;;;;5041831;28;20120;-42
2022/11/14 12:05:45;;;;;;;54.40;32.15;;;9.50;99.90;;;;;;5023230;28;20045;-40
2022/11/14 12:08:16;;;;;;;50.20;30.67;;;9.40;99.90;;;;;;5033700;28;20049;-40
2022/11/14 12:10:44;;;;;;;52.30;31.27;;;9.40;99.90;;;;;;5032546;28;20156;-41
2022/11/14 12:13:29;;;;;;;44.72;28.10;;;9.50;99.90;;;;;;5050204;28;20131;-41
2022/11/14 12:16:07;;;;;;;50.15;29.60;;;9.50;99.90;;;;;;5031451;28;20049;-43
2022/11/14 12:19:25;;;;;;;51.10;30.23;;;9.60;99.90;;;;;;5024977;28;20148;-40
2022/11/14 12:22:01;;;;;;;51.58;29.67;;;9.60;99.90;;;;;;4915609;29;20143;-39
2022/11/14 12:24:55;;;;;;;47.58;28.80;;;9.60;99.90;;;;;;4931075;29;20090;-42
2022/11/14 12:27:42;;;;;;;45.78;28.92;;;9.70;99.90;;;;;;5003852;28;20459;-39
2022/11/14 12:30:12;;;;;;;47.45;28.98;;;9.70;99.90;;;;;;5017382;28;20076;-42
2022/11/14 12:32:42;;;;;;;44.90;27.23;;;9.70;99.90;;;;;;5031403;28;20489;-41
2022/11/14 12:35:13;;;;;;;42.10;27.13;;;9.80;99.90;;;;;;5035905;28;20049;-41
2022/11/14 12:37:43;;;;;;;43.60;28.63;;;9.80;99.90;;;;;;5031810;28;20100;-42
2022/11/14 12:40:20;;;;;;;43.85;26.55;;;9.90;99.90;;;;;;5055224;28;20057;-41
2022/11/14 12:42:47;;;;;;;40.97;26.38;;;9.90;99.90;;;;;;5052580;28;20081;-40
2022/11/14 12:45:49;;;;;;;45.45;27.10;;;9.90;99.90;;;;;;5014184;28;20554;-40
2022/11/14 12:48:21;;;;;;;46.50;26.63;;;9.90;99.90;;;;;;5049309;28;20135;-40